createdAt,value
2018-06-09T00:00:58.861Z,22.50
2018-06-09T00:03:27.625Z,22.40
2018-06-09T00:05:56.425Z,22.40
2018-06-09T00:08:25.185Z,22.40
2018-06-09T00:10:53.963Z,22.40
2018-06-09T00:13:22.748Z,22.30
2018-06-09T00:15:51.513Z,22.30
2018-06-09T00:18:20.237Z,22.10
2018-06-09T00:20:48.953Z,22.10
2018-06-09T00:23:17.741Z,22.10
2018-06-09T00:25:46.484Z,22.10
2018-06-09T00:28:15.242Z,22.00
2018-06-09T00:30:43.947Z,21.80
2018-06-09T00:33:12.709Z,21.80
2018-06-09T00:35:41.506Z,21.90
2018-06-09T00:38:10.257Z,21.90
2018-06-09T00:40:39.038Z,21.90
2018-06-09T00:43:07.789Z,21.90
2018-06-09T00:45:36.532Z,21.90
2018-06-09T00:48:05.327Z,21.80
2018-06-09T00:50:34.094Z,21.70
2018-06-09T00:53:02.833Z,21.70
2018-06-09T00:55:31.582Z,21.70
2018-06-09T00:58:00.351Z,21.80
2018-06-09T01:00:29.076Z,21.90
2018-06-09T01:02:57.832Z,21.90
2018-06-09T01:05:26.579Z,21.80
2018-06-09T01:07:55.408Z,21.90
2018-06-09T01:10:28.848Z,21.90
2018-06-09T01:13:00.519Z,21.90
2018-06-09T01:15:33.634Z,21.90
2018-06-09T01:18:07.702Z,21.80
2018-06-09T01:20:40.610Z,21.80
2018-06-09T01:23:13.888Z,21.90
2018-06-09T01:25:47.565Z,22.00
2018-06-09T01:28:23.653Z,21.90
2018-06-09T01:30:57.911Z,21.90
2018-06-09T01:33:31.793Z,21.80
2018-06-09T01:36:05.762Z,21.80
2018-06-09T01:38:41.339Z,21.80
2018-06-09T01:41:14.754Z,21.80
2018-06-09T01:43:51.331Z,21.80
2018-06-09T01:48:56.333Z,21.40
2018-06-09T01:51:31.268Z,21.20
2018-06-09T01:54:04.282Z,21.20
2018-06-09T01:56:39.906Z,21.20
2018-06-09T01:59:14.824Z,21.20
2018-06-09T02:01:47.816Z,21.30
2018-06-09T02:04:22.254Z,21.30
2018-06-09T02:06:55.846Z,21.20
2018-06-09T02:09:28.746Z,21.10
2018-06-09T02:12:01.222Z,21.20
2018-06-09T02:14:37.515Z,21.20
2018-06-09T02:17:10.667Z,21.30
2018-06-09T02:19:43.489Z,21.30
2018-06-09T02:24:47.384Z,21.40
2018-06-09T02:27:19.945Z,21.30
2018-06-09T02:29:52.806Z,21.20
2018-06-09T02:32:25.018Z,21.10
2018-06-09T02:34:57.484Z,21.00
2018-06-09T02:37:28.608Z,21.00
2018-06-09T02:39:58.816Z,21.00
2018-06-09T02:42:28.990Z,21.00
2018-06-09T02:45:02.197Z,20.90
2018-06-09T02:47:35.606Z,20.90
2018-06-09T02:52:37.816Z,20.90
2018-06-09T02:55:10.602Z,20.90
2018-06-09T02:57:43.278Z,20.90
2018-06-09T03:00:16.638Z,20.90
2018-06-09T03:02:49.623Z,20.80
2018-06-09T03:05:22.500Z,20.90
2018-06-09T03:07:54.929Z,20.90
2018-06-09T03:10:28.956Z,20.90
2018-06-09T03:13:01.719Z,20.90
2018-06-09T03:15:34.217Z,20.90
2018-06-09T03:18:06.624Z,20.90
2018-06-09T03:20:40.510Z,20.90
2018-06-09T03:23:13.545Z,20.70
2018-06-09T03:25:47.107Z,20.50
2018-06-09T03:28:19.866Z,20.60
2018-06-09T03:30:53.897Z,20.70
2018-06-09T03:33:26.367Z,20.80
2018-06-09T03:35:55.175Z,20.80
2018-06-09T03:38:23.901Z,20.80
2018-06-09T03:40:52.769Z,20.90
2018-06-09T03:43:21.585Z,20.90
2018-06-09T03:45:50.322Z,20.90
2018-06-09T03:48:19.150Z,20.80
2018-06-09T03:50:47.946Z,20.90
2018-06-09T03:53:16.714Z,20.90
2018-06-09T03:55:45.461Z,20.80
2018-06-09T03:58:14.194Z,20.80
2018-06-09T04:00:42.920Z,20.80
2018-06-09T04:03:12.534Z,20.70
2018-06-09T04:05:41.299Z,20.70
2018-06-09T04:08:09.992Z,20.80
2018-06-09T04:10:38.722Z,20.80
2018-06-09T04:13:07.521Z,20.90
2018-06-09T04:15:36.204Z,21.00
2018-06-09T04:18:05.010Z,21.00
2018-06-09T04:20:33.825Z,21.00
2018-06-09T04:23:02.572Z,20.90
2018-06-09T04:25:31.464Z,20.90
2018-06-09T04:28:00.259Z,20.90
2018-06-09T04:30:29.017Z,21.00
2018-06-09T04:32:57.861Z,21.10
2018-06-09T04:35:26.695Z,21.10
2018-06-09T04:37:55.497Z,21.10
2018-06-09T04:40:24.349Z,21.00
2018-06-09T04:42:53.217Z,20.90
2018-06-09T04:45:21.966Z,20.90
2018-06-09T04:47:50.653Z,21.00
2018-06-09T04:50:19.522Z,21.00
2018-06-09T04:52:48.605Z,20.90
2018-06-09T04:55:17.390Z,20.90
2018-06-09T04:57:46.209Z,20.90
2018-06-09T05:00:15.060Z,21.00
2018-06-09T05:02:43.962Z,20.90
2018-06-09T05:05:12.708Z,20.80
2018-06-09T05:07:41.473Z,20.90
2018-06-09T05:10:10.253Z,21.00
2018-06-09T05:12:39.060Z,21.00
2018-06-09T05:15:07.823Z,21.10
2018-06-09T05:17:36.656Z,21.00
2018-06-09T05:20:05.452Z,21.10
2018-06-09T05:22:34.249Z,21.20
2018-06-09T05:25:03.041Z,21.30
2018-06-09T05:27:32.101Z,21.40
2018-06-09T05:30:00.925Z,21.40
2018-06-09T05:32:29.706Z,21.40
2018-06-09T05:34:58.466Z,21.30
2018-06-09T05:37:27.205Z,21.10
2018-06-09T05:39:56.010Z,21.20
2018-06-09T05:42:24.782Z,21.40
2018-06-09T05:44:53.655Z,21.60
2018-06-09T05:47:22.484Z,21.60
2018-06-09T05:49:51.346Z,21.60
2018-06-09T05:52:21.806Z,21.50
2018-06-09T05:54:50.603Z,21.60
2018-06-09T05:57:19.450Z,21.60
2018-06-09T05:59:48.225Z,21.60
2018-06-09T06:02:17.001Z,21.70
2018-06-09T06:04:45.717Z,21.80
2018-06-09T06:07:14.406Z,21.80
2018-06-09T06:09:43.106Z,21.80
2018-06-09T06:12:11.801Z,22.00
2018-06-09T06:14:40.570Z,22.20
2018-06-09T06:17:09.297Z,22.30
2018-06-09T06:19:38.040Z,22.40
2018-06-09T06:22:06.985Z,22.40
2018-06-09T06:24:35.780Z,22.50
2018-06-09T06:27:04.574Z,22.60
2018-06-09T06:29:33.701Z,22.60
2018-06-09T06:32:02.633Z,22.80
2018-06-09T06:34:31.452Z,22.80
2018-06-09T06:37:00.364Z,22.80
2018-06-09T06:39:29.223Z,22.90
2018-06-09T06:41:58.106Z,22.90
2018-06-09T06:44:26.956Z,23.00
2018-06-09T06:46:55.785Z,23.10
2018-06-09T06:49:24.922Z,23.10
2018-06-09T06:51:53.714Z,23.20
2018-06-09T06:54:22.528Z,23.30
2018-06-09T06:56:51.291Z,23.50
2018-06-09T06:59:20.077Z,23.70
2018-06-09T07:01:48.971Z,23.90
2018-06-09T07:04:17.788Z,23.90
2018-06-09T07:06:46.516Z,23.90
2018-06-09T07:11:43.821Z,23.70
2018-06-09T07:14:12.607Z,23.80
2018-06-09T07:16:41.380Z,23.80
2018-06-09T07:19:10.137Z,23.90
2018-06-09T07:21:38.944Z,24.00
2018-06-09T07:24:07.674Z,24.00
2018-06-09T07:26:36.428Z,24.20
2018-06-09T07:29:05.260Z,24.40
2018-06-09T07:31:34.028Z,24.50
2018-06-09T07:34:02.837Z,24.40
2018-06-09T07:36:31.711Z,24.40
2018-06-09T07:39:00.590Z,24.60
2018-06-09T07:41:29.350Z,24.90
2018-06-09T07:43:58.237Z,25.00
2018-06-09T07:46:26.972Z,24.50
2018-06-09T07:48:55.733Z,24.40
2018-06-09T07:51:24.414Z,24.30
2018-06-09T07:53:53.221Z,24.60
2018-06-09T07:56:21.989Z,24.80
2018-06-09T07:58:50.713Z,25.10
2018-06-09T08:01:19.536Z,25.30
2018-06-09T08:03:48.309Z,25.50
2018-06-09T08:06:17.139Z,25.30
2018-06-09T08:08:45.952Z,25.30
2018-06-09T08:11:14.764Z,25.30
2018-06-09T08:13:43.525Z,25.30
2018-06-09T08:16:12.291Z,25.30
2018-06-09T08:18:41.070Z,25.40
2018-06-09T08:21:09.885Z,25.60
2018-06-09T08:23:38.760Z,25.70
2018-06-09T08:26:07.532Z,25.40
2018-06-09T08:28:36.229Z,25.10
2018-06-09T08:31:04.903Z,25.10
2018-06-09T08:33:33.649Z,25.30
2018-06-09T08:36:02.412Z,25.10
2018-06-09T08:38:31.594Z,24.90
2018-06-09T08:41:00.305Z,25.10
2018-06-09T08:43:29.089Z,25.40
2018-06-09T08:45:57.832Z,25.40
2018-06-09T08:48:26.588Z,25.40
2018-06-09T08:50:55.313Z,25.50
2018-06-09T08:53:24.065Z,25.60
2018-06-09T08:55:52.797Z,25.90
2018-06-09T08:58:21.625Z,26.10
2018-06-09T09:00:50.325Z,26.30
2018-06-09T09:03:19.071Z,26.40
2018-06-09T09:05:47.785Z,26.40
2018-06-09T09:08:17.017Z,26.60
2018-06-09T09:10:45.744Z,26.60
2018-06-09T09:13:14.667Z,26.70
2018-06-09T09:15:43.435Z,26.40
2018-06-09T09:18:12.233Z,26.40
2018-06-09T09:20:40.966Z,26.40
2018-06-09T09:23:09.683Z,26.40
2018-06-09T09:25:38.385Z,26.30
2018-06-09T09:28:07.096Z,26.50
2018-06-09T09:30:35.865Z,26.80
2018-06-09T09:33:04.624Z,27.10
2018-06-09T09:35:33.442Z,27.40
2018-06-09T09:38:02.126Z,27.60
2018-06-09T09:40:30.809Z,27.40
2018-06-09T09:42:59.553Z,27.50
2018-06-09T09:45:28.308Z,27.90
2018-06-09T09:47:57.041Z,28.10
2018-06-09T09:50:25.750Z,28.40
2018-06-09T09:52:54.485Z,28.50
2018-06-09T09:55:23.230Z,28.70
2018-06-09T09:57:58.545Z,28.80
2018-06-09T10:00:33.232Z,28.90
2018-06-09T10:03:02.028Z,28.90
2018-06-09T10:05:30.772Z,29.10
2018-06-09T10:07:59.469Z,29.10
2018-06-09T10:10:28.482Z,29.20
2018-06-09T10:12:57.176Z,29.40
2018-06-09T10:15:25.908Z,29.30
2018-06-09T10:17:54.750Z,29.10
2018-06-09T10:20:23.526Z,28.90
2018-06-09T10:22:52.305Z,28.60
2018-06-09T10:25:20.997Z,28.60
2018-06-09T10:27:49.743Z,28.80
2018-06-09T10:30:18.911Z,28.90
2018-06-09T10:32:47.772Z,29.00
2018-06-09T10:35:16.739Z,29.30
2018-06-09T10:37:45.534Z,29.50
2018-06-09T10:40:15.417Z,29.40
2018-06-09T10:42:45.257Z,29.20
2018-06-09T10:45:15.318Z,29.20
2018-06-09T10:47:45.051Z,29.30
2018-06-09T10:50:13.892Z,29.40
2018-06-09T10:52:42.652Z,29.70
2018-06-09T10:55:11.404Z,29.90
2018-06-09T10:57:40.143Z,30.00
2018-06-09T11:00:08.850Z,29.90
2018-06-09T11:02:37.685Z,29.60
2018-06-09T11:05:06.516Z,29.20
2018-06-09T11:07:35.312Z,29.00
2018-06-09T11:10:04.088Z,29.00
2018-06-09T11:12:32.851Z,28.80
2018-06-09T11:15:04.995Z,29.20
2018-06-09T11:17:33.744Z,29.50
2018-06-09T11:20:02.501Z,29.30
2018-06-09T11:22:31.304Z,29.20
2018-06-09T11:25:00.072Z,29.30
2018-06-09T11:27:28.900Z,29.70
2018-06-09T11:29:57.609Z,29.80
2018-06-09T11:32:26.379Z,30.00
2018-06-09T11:34:55.125Z,30.00
2018-06-09T11:37:23.937Z,29.90
2018-06-09T11:39:52.671Z,30.10
2018-06-09T11:42:21.712Z,30.10
2018-06-09T11:44:50.519Z,30.10
2018-06-09T11:47:19.316Z,30.00
2018-06-09T11:49:48.083Z,30.00
2018-06-09T11:52:16.853Z,29.90
2018-06-09T11:54:45.599Z,29.80
2018-06-09T11:57:14.334Z,29.50
2018-06-09T11:59:43.094Z,29.40
2018-06-09T12:02:11.832Z,29.40
2018-06-09T12:04:40.617Z,29.70
2018-06-09T12:07:09.338Z,29.40
2018-06-09T12:09:38.103Z,29.20
2018-06-09T12:12:06.926Z,29.20
2018-06-09T12:14:36.143Z,29.10
2018-06-09T12:17:05.313Z,29.10
2018-06-09T12:19:34.086Z,29.40
2018-06-09T12:22:02.892Z,29.50
2018-06-09T12:24:31.712Z,29.60
2018-06-09T12:27:00.571Z,29.70
2018-06-09T12:29:29.455Z,29.80
2018-06-09T12:31:58.232Z,29.80
2018-06-09T12:34:27.069Z,29.60
2018-06-09T12:36:55.837Z,29.70
2018-06-09T12:39:24.664Z,29.80
2018-06-09T12:41:53.514Z,29.60
2018-06-09T12:44:22.280Z,29.30
2018-06-09T12:46:51.050Z,29.30
2018-06-09T12:49:19.847Z,29.40
2018-06-09T12:51:48.794Z,29.80
2018-06-09T12:54:17.586Z,29.90
2018-06-09T12:56:46.349Z,30.00
2018-06-09T12:59:15.180Z,30.20
2018-06-09T13:01:44.196Z,30.20
2018-06-09T13:04:13.009Z,30.20
2018-06-09T13:06:41.814Z,30.40
2018-06-09T13:09:10.752Z,30.40
2018-06-09T13:11:39.573Z,30.40
2018-06-09T13:14:08.387Z,30.50
2018-06-09T13:16:37.145Z,30.60
2018-06-09T13:19:07.053Z,30.40
2018-06-09T13:21:35.890Z,30.40
2018-06-09T13:24:04.749Z,30.30
2018-06-09T13:26:33.632Z,30.40
2018-06-09T13:29:02.400Z,30.60
2018-06-09T13:31:31.227Z,30.50
2018-06-09T13:34:00.046Z,30.50
2018-06-09T13:36:28.980Z,30.50
2018-06-09T13:38:57.931Z,30.40
2018-06-09T13:41:26.826Z,30.50
2018-06-09T13:43:55.691Z,30.70
2018-06-09T13:46:24.602Z,30.60
2018-06-09T13:48:53.450Z,30.50
2018-06-09T13:51:22.356Z,30.30
2018-06-09T13:53:51.509Z,30.40
2018-06-09T13:56:20.369Z,30.40
2018-06-09T13:58:49.272Z,30.50
2018-06-09T14:01:18.128Z,30.60
2018-06-09T14:03:46.999Z,30.80
2018-06-09T14:06:15.988Z,30.80
2018-06-09T14:08:44.896Z,30.90
2018-06-09T14:11:14.018Z,30.90
2018-06-09T14:13:44.218Z,30.70
2018-06-09T14:16:13.105Z,30.40
2018-06-09T14:18:41.881Z,30.30
2018-06-09T14:21:10.589Z,30.20
2018-06-09T14:23:39.333Z,30.10
2018-06-09T14:26:08.131Z,30.10
2018-06-09T14:28:37.177Z,30.20
2018-06-09T14:31:06.232Z,30.20
2018-06-09T14:33:35.151Z,30.10
2018-06-09T14:36:04.417Z,30.00
2018-06-09T14:38:33.705Z,30.00
2018-06-09T14:41:02.775Z,30.00
2018-06-09T14:43:31.750Z,30.00
2018-06-09T14:46:00.808Z,30.00
2018-06-09T14:48:29.638Z,29.90
2018-06-09T14:50:58.431Z,29.90
2018-06-09T14:53:27.408Z,30.00
2018-06-09T14:55:56.189Z,30.00
2018-06-09T14:58:25.601Z,29.90
2018-06-09T15:00:54.490Z,29.90
2018-06-09T15:03:23.286Z,29.80
2018-06-09T15:05:52.131Z,29.70
2018-06-09T15:08:20.840Z,29.60
2018-06-09T15:10:49.792Z,29.50
2018-06-09T15:13:18.741Z,29.40
2018-06-09T15:15:47.703Z,29.30
2018-06-09T15:18:16.682Z,29.20
2018-06-09T15:20:45.605Z,28.90
2018-06-09T15:23:14.951Z,28.90
2018-06-09T15:25:44.075Z,28.90
2018-06-09T15:28:13.050Z,29.00
2018-06-09T15:30:41.956Z,29.10
2018-06-09T15:33:10.835Z,29.10
2018-06-09T15:35:39.830Z,28.90
2018-06-09T15:38:08.708Z,28.90
2018-06-09T15:40:37.539Z,28.80
2018-06-09T15:43:07.683Z,28.80
2018-06-09T15:45:36.625Z,28.70
2018-06-09T15:48:05.649Z,28.60
2018-06-09T15:50:34.616Z,28.60
2018-06-09T15:53:03.787Z,28.60
2018-06-09T15:55:32.686Z,28.70
2018-06-09T15:58:01.701Z,28.70
2018-06-09T16:00:31.932Z,28.80
2018-06-09T16:03:01.806Z,28.70
2018-06-09T16:05:30.756Z,28.70
2018-06-09T16:07:59.920Z,28.80
2018-06-09T16:10:28.779Z,28.70
2018-06-09T16:12:57.678Z,28.70
2018-06-09T16:15:30.437Z,28.80
2018-06-09T16:17:59.746Z,28.70
2018-06-09T16:20:29.073Z,28.70
2018-06-09T16:22:57.975Z,28.50
2018-06-09T16:25:26.818Z,28.50
2018-06-09T16:27:55.557Z,28.50
2018-06-09T16:30:24.347Z,28.60
2018-06-09T16:32:53.194Z,28.60
2018-06-09T16:35:21.968Z,28.60
2018-06-09T16:37:51.235Z,28.50
2018-06-09T16:40:20.200Z,28.40
2018-06-09T16:42:52.109Z,28.40
2018-06-09T16:45:21.107Z,28.50
2018-06-09T16:47:49.997Z,28.60
2018-06-09T16:50:18.969Z,28.60
2018-06-09T16:52:49.001Z,28.60
2018-06-09T16:55:17.960Z,28.70
2018-06-09T16:57:47.182Z,28.70
2018-06-09T17:00:15.989Z,28.60
2018-06-09T17:02:44.712Z,28.40
2018-06-09T17:05:13.615Z,28.30
2018-06-09T17:07:42.601Z,28.30
2018-06-09T17:10:11.854Z,28.10
2018-06-09T17:12:40.697Z,28.00
2018-06-09T17:15:12.724Z,27.80
2018-06-09T17:17:41.794Z,27.70
2018-06-09T17:20:10.816Z,27.50
2018-06-09T17:22:39.656Z,27.50
2018-06-09T17:25:08.799Z,27.50
2018-06-09T17:27:37.665Z,27.50
2018-06-09T17:30:06.651Z,27.60
2018-06-09T17:32:35.743Z,27.60
2018-06-09T17:35:04.644Z,27.10
2018-06-09T17:37:33.480Z,26.10
2018-06-09T17:40:02.505Z,24.90
2018-06-09T17:42:31.585Z,23.10
2018-06-09T17:45:00.298Z,22.00
2018-06-09T17:47:29.043Z,20.70
2018-06-09T17:49:57.881Z,19.00
2018-06-09T17:52:26.637Z,18.90
2018-06-09T17:54:55.309Z,18.80
2018-06-09T17:57:24.059Z,18.50
